sensor_id;sensor_type;location;lat;lon;timestamp;pressure;altitude;pressure_sealevel;temperature;humidity
28312;BME280;15572;48.810;9.148;2023-09-07T00:03:15;98416.59;;;15.25;100.00
28312;BME280;15572;48.810;9.148;2023-09-07T00:08:12;98407.53;;;15.31;100.00
28312;BME280;15572;48.810;9.148;2023-09-07T00:13:08;98415.91;;;15.36;100.00
28312;BME280;15572;48.810;9.148;2023-09-07T00:18:06;98412.84;;;15.26;100.00
28312;BME280;15572;48.810;9.148;2023-09-07T00:23:03;98417.81;;;15.04;100.00
28312;BME280;15572;48.810;9.148;2023-09-07T00:27:59;98414.88;;;15.06;100.00
28312;BME280;15572;48.810;9.148;2023-09-07T00:32:56;98412.75;;;15.08;100.00
28312;BME280;15572;48.810;9.148;2023-09-07T00:37:54;98413.41;;;15.03;100.00
28312;BME280;15572;48.810;9.148;2023-09-07T00:42:50;98415.66;;;15.06;100.00
28312;BME280;15572;48.810;9.148;2023-09-07T00:47:47;98410.84;;;15.08;100.00
28312;BME280;15572;48.810;9.148;2023-09-07T00:52:45;98407.78;;;14.98;100.00
28312;BME280;15572;48.810;9.148;2023-09-07T00:57:44;98412.50;;;14.78;100.00
28312;BME280;15572;48.810;9.148;2023-09-07T01:02:40;98414.25;;;14.66;100.00
28312;BME280;15572;48.810;9.148;2023-09-07T01:07:38;98417.22;;;14.58;100.00
28312;BME280;15572;48.810;9.148;2023-09-07T01:12:36;98414.16;;;14.41;100.00
28312;BME280;15572;48.810;9.148;2023-09-07T01:17:34;98413.53;;;14.39;100.00
28312;BME280;15572;48.810;9.148;2023-09-07T01:22:33;98414.81;;;14.37;100.00
28312;BME280;15572;48.810;9.148;2023-09-07T01:27:30;98416.88;;;14.34;100.00
28312;BME280;15572;48.810;9.148;2023-09-07T01:32:26;98408.91;;;14.33;100.00
28312;BME280;15572;48.810;9.148;2023-09-07T01:37:23;98403.69;;;14.31;100.00
28312;BME280;15572;48.810;9.148;2023-09-07T01:42:21;98405.19;;;14.21;100.00
28312;BME280;15572;48.810;9.148;2023-09-07T01:47:18;98399.13;;;14.12;100.00
28312;BME280;15572;48.810;9.148;2023-09-07T01:52:14;98396.84;;;14.09;100.00
28312;BME280;15572;48.810;9.148;2023-09-07T01:57:11;98418.59;;;14.16;100.00
28312;BME280;15572;48.810;9.148;2023-09-07T02:02:09;98412.72;;;14.19;100.00
28312;BME280;15572;48.810;9.148;2023-09-07T02:07:05;98411.06;;;14.11;100.00
28312;BME280;15572;48.810;9.148;2023-09-07T02:12:02;98417.59;;;14.04;100.00
28312;BME280;15572;48.810;9.148;2023-09-07T02:17:00;98421.31;;;14.16;100.00
28312;BME280;15572;48.810;9.148;2023-09-07T02:21:58;98417.09;;;14.26;100.00
28312;BME280;15572;48.810;9.148;2023-09-07T02:26:54;98419.81;;;14.26;100.00
28312;BME280;15572;48.810;9.148;2023-09-07T02:31:51;98419.81;;;14.26;100.00
28312;BME280;15572;48.810;9.148;2023-09-07T02:36:47;98417.97;;;14.20;100.00
28312;BME280;15572;48.810;9.148;2023-09-07T02:41:45;98406.47;;;14.12;100.00
28312;BME280;15572;48.810;9.148;2023-09-07T02:46:41;98410.47;;;13.96;100.00
28312;BME280;15572;48.810;9.148;2023-09-07T02:51:38;98407.16;;;13.94;100.00
28312;BME280;15572;48.810;9.148;2023-09-07T02:56:34;98407.56;;;14.04;100.00
28312;BME280;15572;48.810;9.148;2023-09-07T03:01:32;98403.59;;;13.94;100.00
28312;BME280;15572;48.810;9.148;2023-09-07T03:06:29;98403.19;;;13.83;100.00
28312;BME280;15572;48.810;9.148;2023-09-07T03:11:26;98404.25;;;13.82;100.00
28312;BME280;15572;48.810;9.148;2023-09-07T03:16:25;98406.13;;;13.82;100.00
28312;BME280;15572;48.810;9.148;2023-09-07T03:21:23;98402.13;;;13.91;100.00
28312;BME280;15572;48.810;9.148;2023-09-07T03:26:24;98397.31;;;13.93;100.00
28312;BME280;15572;48.810;9.148;2023-09-07T03:31:20;98396.88;;;13.96;100.00
28312;BME280;15572;48.810;9.148;2023-09-07T03:36:17;98388.75;;;13.83;100.00
28312;BME280;15572;48.810;9.148;2023-09-07T03:41:15;98390.84;;;13.68;100.00
28312;BME280;15572;48.810;9.148;2023-09-07T03:46:11;98391.09;;;13.60;100.00
28312;BME280;15572;48.810;9.148;2023-09-07T03:51:08;98392.97;;;13.53;100.00
28312;BME280;15572;48.810;9.148;2023-09-07T03:56:04;98395.06;;;13.51;100.00
28312;BME280;15572;48.810;9.148;2023-09-07T04:01:02;98394.88;;;13.45;100.00
28312;BME280;15572;48.810;9.148;2023-09-07T04:05:59;98393.19;;;13.51;100.00
28312;BME280;15572;48.810;9.148;2023-09-07T04:10:56;98386.91;;;13.44;100.00
28312;BME280;15572;48.810;9.148;2023-09-07T04:15:52;98389.44;;;13.39;100.00
28312;BME280;15572;48.810;9.148;2023-09-07T04:20:50;98384.81;;;13.33;100.00
28312;BME280;15572;48.810;9.148;2023-09-07T04:25:47;98390.69;;;13.23;100.00
28312;BME280;15572;48.810;9.148;2023-09-07T04:30:43;98392.16;;;13.19;100.00
28312;BME280;15572;48.810;9.148;2023-09-07T04:35:40;98389.00;;;13.16;100.00
28312;BME280;15572;48.810;9.148;2023-09-07T04:40:38;98389.44;;;13.19;100.00
28312;BME280;15572;48.810;9.148;2023-09-07T04:45:34;98389.00;;;13.16;100.00
28312;BME280;15572;48.810;9.148;2023-09-07T04:50:30;98388.75;;;13.11;100.00
28312;BME280;15572;48.810;9.148;2023-09-07T04:55:27;98395.47;;;13.15;100.00
28312;BME280;15572;48.810;9.148;2023-09-07T05:00:25;98399.88;;;13.22;100.00
28312;BME280;15572;48.810;9.148;2023-09-07T05:05:21;98401.53;;;13.17;100.00
28312;BME280;15572;48.810;9.148;2023-09-07T05:10:18;98405.72;;;13.13;100.00
28312;BME280;15572;48.810;9.148;2023-09-07T05:15:14;98413.88;;;13.13;100.00
28312;BME280;15572;48.810;9.148;2023-09-07T05:20:12;98412.22;;;13.12;100.00
28312;BME280;15572;48.810;9.148;2023-09-07T05:25:09;98410.34;;;13.12;100.00
28312;BME280;15572;48.810;9.148;2023-09-07T05:30:07;98419.34;;;13.19;100.00
28312;BME280;15572;48.810;9.148;2023-09-07T05:35:04;98426.03;;;13.23;100.00
28312;BME280;15572;48.810;9.148;2023-09-07T05:40:02;98436.69;;;13.31;100.00
28312;BME280;15572;48.810;9.148;2023-09-07T05:44:59;98425.38;;;13.41;100.00
28312;BME280;15572;48.810;9.148;2023-09-07T05:49:55;98435.22;;;13.48;100.00
28312;BME280;15572;48.810;9.148;2023-09-07T05:54:52;98432.09;;;13.65;100.00
28312;BME280;15572;48.810;9.148;2023-09-07T05:59:50;98434.78;;;13.84;100.00
28312;BME280;15572;48.810;9.148;2023-09-07T06:04:46;98436.00;;;14.02;100.00
28312;BME280;15572;48.810;9.148;2023-09-07T06:09:43;98430.94;;;14.18;100.00
28312;BME280;15572;48.810;9.148;2023-09-07T06:14:39;98435.94;;;14.34;100.00
28312;BME280;15572;48.810;9.148;2023-09-07T06:19:37;98434.84;;;14.55;100.00
28312;BME280;15572;48.810;9.148;2023-09-07T06:24:35;98438.13;;;14.70;100.00
28312;BME280;15572;48.810;9.148;2023-09-07T06:29:31;98430.72;;;14.84;100.00
28312;BME280;15572;48.810;9.148;2023-09-07T06:34:28;98436.72;;;14.99;100.00
28312;BME280;15572;48.810;9.148;2023-09-07T06:39:26;98434.91;;;15.18;100.00
28312;BME280;15572;48.810;9.148;2023-09-07T06:44:22;98433.34;;;15.29;100.00
28312;BME280;15572;48.810;9.148;2023-09-07T06:49:19;98433.88;;;15.44;100.00
28312;BME280;15572;48.810;9.148;2023-09-07T06:54:15;98445.34;;;15.59;100.00
28312;BME280;15572;48.810;9.148;2023-09-07T06:59:13;98448.72;;;15.79;100.00
28312;BME280;15572;48.810;9.148;2023-09-07T07:04:09;98444.38;;;15.96;100.00
28312;BME280;15572;48.810;9.148;2023-09-07T07:09:06;98447.91;;;16.22;100.00
28312;BME280;15572;48.810;9.148;2023-09-07T07:14:04;98455.50;;;16.38;100.00
28312;BME280;15572;48.810;9.148;2023-09-07T07:19:02;98464.75;;;16.55;100.00
28312;BME280;15572;48.810;9.148;2023-09-07T07:23:58;98459.75;;;16.70;100.00
28312;BME280;15572;48.810;9.148;2023-09-07T07:28:55;98463.63;;;16.81;100.00
28312;BME280;15572;48.810;9.148;2023-09-07T07:33:52;98451.44;;;16.95;100.00
28312;BME280;15572;48.810;9.148;2023-09-07T07:38:50;98451.63;;;17.12;100.00
28312;BME280;15572;48.810;9.148;2023-09-07T07:43:47;98457.06;;;17.30;100.00
28312;BME280;15572;48.810;9.148;2023-09-07T07:48:43;98453.28;;;17.43;100.00
28312;BME280;15572;48.810;9.148;2023-09-07T07:53:40;98442.72;;;17.58;100.00
28312;BME280;15572;48.810;9.148;2023-09-07T07:58:38;98455.38;;;17.71;100.00
28312;BME280;15572;48.810;9.148;2023-09-07T08:03:34;98448.72;;;17.90;100.00
28312;BME280;15572;48.810;9.148;2023-09-07T08:08:30;98444.72;;;18.16;100.00
28312;BME280;15572;48.810;9.148;2023-09-07T08:13:27;98443.72;;;18.33;100.00
28312;BME280;15572;48.810;9.148;2023-09-07T08:18:25;98440.97;;;18.57;100.00
28312;BME280;15572;48.810;9.148;2023-09-07T08:23:22;98439.84;;;18.81;100.00
28312;BME280;15572;48.810;9.148;2023-09-07T08:28:19;98439.16;;;19.02;100.00
28312;BME280;15572;48.810;9.148;2023-09-07T08:33:17;98443.84;;;19.18;100.00
28312;BME280;15572;48.810;9.148;2023-09-07T08:38:15;98446.41;;;19.37;100.00
28312;BME280;15572;48.810;9.148;2023-09-07T08:43:12;98451.97;;;19.53;100.00
28312;BME280;15572;48.810;9.148;2023-09-07T08:48:10;98445.13;;;19.72;100.00
28312;BME280;15572;48.810;9.148;2023-09-07T08:53:08;98448.13;;;19.88;100.00
28312;BME280;15572;48.810;9.148;2023-09-07T08:58:06;98451.47;;;20.06;100.00
28312;BME280;15572;48.810;9.148;2023-09-07T09:03:03;98446.94;;;20.17;99.55
28312;BME280;15572;48.810;9.148;2023-09-07T09:08:03;98457.72;;;20.35;98.70
28312;BME280;15572;48.810;9.148;2023-09-07T09:13:00;98444.50;;;20.54;97.50
28312;BME280;15572;48.810;9.148;2023-09-07T09:17:58;98447.38;;;20.64;97.05
28312;BME280;15572;48.810;9.148;2023-09-07T09:22:55;98448.34;;;20.75;97.01
28312;BME280;15572;48.810;9.148;2023-09-07T09:27:51;98435.09;;;20.93;95.08
28312;BME280;15572;48.810;9.148;2023-09-07T09:32:48;98428.34;;;21.06;93.30
28312;BME280;15572;48.810;9.148;2023-09-07T09:37:47;98430.78;;;21.24;92.96
28312;BME280;15572;48.810;9.148;2023-09-07T09:42:44;98431.78;;;21.40;91.76
28312;BME280;15572;48.810;9.148;2023-09-07T09:47:42;98422.25;;;21.53;91.13
28312;BME280;15572;48.810;9.148;2023-09-07T09:52:39;98418.22;;;21.65;90.68
28312;BME280;15572;48.810;9.148;2023-09-07T09:57:37;98415.88;;;21.79;89.26
28312;BME280;15572;48.810;9.148;2023-09-07T10:02:36;98417.97;;;21.99;89.46
28312;BME280;15572;48.810;9.148;2023-09-07T10:07:41;98418.03;;;22.09;86.44
28312;BME280;15572;48.810;9.148;2023-09-07T10:12:43;98423.66;;;22.24;86.57
28312;BME280;15572;48.810;9.148;2023-09-07T10:17:40;98420.16;;;22.39;85.57
28312;BME280;15572;48.810;9.148;2023-09-07T10:22:37;98419.91;;;22.45;85.03
28312;BME280;15572;48.810;9.148;2023-09-07T10:27:36;98412.84;;;22.59;85.44
28312;BME280;15572;48.810;9.148;2023-09-07T10:32:39;98409.00;;;22.71;85.83
28312;BME280;15572;48.810;9.148;2023-09-07T10:37:37;98400.84;;;22.86;84.52
28312;BME280;15572;48.810;9.148;2023-09-07T10:42:37;98394.00;;;23.14;82.75
28312;BME280;15572;48.810;9.148;2023-09-07T10:47:34;98392.19;;;23.49;79.93
28312;BME280;15572;48.810;9.148;2023-09-07T10:52:33;98393.81;;;23.86;77.35
28312;BME280;15572;48.810;9.148;2023-09-07T10:57:29;98387.06;;;24.58;74.80
28312;BME280;15572;48.810;9.148;2023-09-07T11:02:26;98373.19;;;25.22;71.47
28312;BME280;15572;48.810;9.148;2023-09-07T11:07:23;98363.72;;;25.72;69.46
28312;BME280;15572;48.810;9.148;2023-09-07T11:12:21;98372.13;;;26.20;63.86
28312;BME280;15572;48.810;9.148;2023-09-07T11:17:17;98370.94;;;26.31;61.23
28312;BME280;15572;48.810;9.148;2023-09-07T11:22:14;98365.78;;;27.09;59.07
28312;BME280;15572;48.810;9.148;2023-09-07T11:27:10;98366.53;;;28.03;56.90
28312;BME280;15572;48.810;9.148;2023-09-07T11:32:09;98359.22;;;28.81;54.39
28312;BME280;15572;48.810;9.148;2023-09-07T11:37:06;98358.94;;;29.18;51.19
28312;BME280;15572;48.810;9.148;2023-09-07T11:42:03;98353.84;;;28.98;49.13
28312;BME280;15572;48.810;9.148;2023-09-07T11:46:59;98350.34;;;28.93;48.97
28312;BME280;15572;48.810;9.148;2023-09-07T11:51:57;98348.13;;;29.75;48.26
28312;BME280;15572;48.810;9.148;2023-09-07T11:56:54;98344.44;;;29.88;46.77
28312;BME280;15572;48.810;9.148;2023-09-07T12:01:50;98344.00;;;30.48;45.65
28312;BME280;15572;48.810;9.148;2023-09-07T12:06:47;98336.16;;;31.24;44.81
28312;BME280;15572;48.810;9.148;2023-09-07T12:11:44;98323.81;;;31.51;43.77
28312;BME280;15572;48.810;9.148;2023-09-07T12:16:41;98331.06;;;31.60;44.07
28312;BME280;15572;48.810;9.148;2023-09-07T12:21:37;98327.06;;;31.96;43.00
28312;BME280;15572;48.810;9.148;2023-09-07T12:26:34;98320.25;;;32.23;41.94
28312;BME280;15572;48.810;9.148;2023-09-07T12:31:32;98315.28;;;32.75;40.55
28312;BME280;15572;48.810;9.148;2023-09-07T12:36:28;98311.81;;;33.28;39.59
28312;BME280;15572;48.810;9.148;2023-09-07T12:41:25;98320.22;;;32.98;39.43
28312;BME280;15572;48.810;9.148;2023-09-07T12:46:21;98308.91;;;33.36;38.20
28312;BME280;15572;48.810;9.148;2023-09-07T12:51:19;98306.91;;;33.58;37.68
28312;BME280;15572;48.810;9.148;2023-09-07T12:56:16;98304.84;;;33.67;37.07
28312;BME280;15572;48.810;9.148;2023-09-07T13:01:13;98300.94;;;33.80;37.39
28312;BME280;15572;48.810;9.148;2023-09-07T13:06:11;98290.56;;;33.80;37.87
28312;BME280;15572;48.810;9.148;2023-09-07T13:11:09;98291.81;;;33.71;36.56
28312;BME280;15572;48.810;9.148;2023-09-07T13:16:06;98289.81;;;33.51;37.55
28312;BME280;15572;48.810;9.148;2023-09-07T13:21:02;98290.09;;;32.95;37.66
28312;BME280;15572;48.810;9.148;2023-09-07T13:25:59;98286.00;;;32.26;38.37
28312;BME280;15572;48.810;9.148;2023-09-07T13:30:58;98288.28;;;31.60;39.90
28312;BME280;15572;48.810;9.148;2023-09-07T13:35:54;98284.69;;;31.25;41.03
28312;BME280;15572;48.810;9.148;2023-09-07T13:40:51;98271.16;;;30.92;41.37
28312;BME280;15572;48.810;9.148;2023-09-07T13:45:47;98268.97;;;30.72;41.91
28312;BME280;15572;48.810;9.148;2023-09-07T13:50:45;98267.78;;;30.56;42.72
28312;BME280;15572;48.810;9.148;2023-09-07T13:55:42;98258.44;;;30.13;43.92
28312;BME280;15572;48.810;9.148;2023-09-07T14:00:41;98256.91;;;29.76;44.92
28312;BME280;15572;48.810;9.148;2023-09-07T14:05:38;98255.03;;;29.62;46.00
28312;BME280;15572;48.810;9.148;2023-09-07T14:10:36;98259.31;;;29.38;46.12
28312;BME280;15572;48.810;9.148;2023-09-07T14:15:32;98249.00;;;29.24;46.03
28312;BME280;15572;48.810;9.148;2023-09-07T14:20:29;98249.50;;;29.04;46.74
28312;BME280;15572;48.810;9.148;2023-09-07T14:25:25;98248.03;;;29.07;47.87
28312;BME280;15572;48.810;9.148;2023-09-07T14:30:23;98251.50;;;29.12;47.82
28312;BME280;15572;48.810;9.148;2023-09-07T14:35:19;98247.84;;;29.03;46.64
28312;BME280;15572;48.810;9.148;2023-09-07T14:40:16;98240.88;;;28.92;45.11
28312;BME280;15572;48.810;9.148;2023-09-07T14:45:14;98240.25;;;28.95;46.92
28312;BME280;15572;48.810;9.148;2023-09-07T14:50:12;98234.69;;;28.95;46.06
28312;BME280;15572;48.810;9.148;2023-09-07T14:55:08;98233.97;;;28.90;47.67
28312;BME280;15572;48.810;9.148;2023-09-07T15:00:06;98224.53;;;28.99;47.17
28312;BME280;15572;48.810;9.148;2023-09-07T15:05:04;98230.31;;;29.03;46.67
28312;BME280;15572;48.810;9.148;2023-09-07T15:10:03;98233.41;;;29.01;46.51
28312;BME280;15572;48.810;9.148;2023-09-07T15:14:59;98226.56;;;29.07;46.91
28312;BME280;15572;48.810;9.148;2023-09-07T15:19:56;98231.53;;;29.10;46.34
28312;BME280;15572;48.810;9.148;2023-09-07T15:24:52;98226.09;;;29.27;44.83
28312;BME280;15572;48.810;9.148;2023-09-07T15:29:52;98229.19;;;29.48;45.38
28312;BME280;15572;48.810;9.148;2023-09-07T15:34:48;98230.88;;;29.58;44.58
28312;BME280;15572;48.810;9.148;2023-09-07T15:39:45;98233.66;;;29.89;44.56
28312;BME280;15572;48.810;9.148;2023-09-07T15:44:41;98219.09;;;29.92;44.24
28312;BME280;15572;48.810;9.148;2023-09-07T15:49:41;98225.41;;;30.06;43.46
28312;BME280;15572;48.810;9.148;2023-09-07T15:54:39;98225.88;;;29.99;42.66
28312;BME280;15572;48.810;9.148;2023-09-07T15:59:35;98222.09;;;30.04;43.38
28312;BME280;15572;48.810;9.148;2023-09-07T16:04:32;98227.97;;;29.94;43.36
28312;BME280;15572;48.810;9.148;2023-09-07T16:09:30;98228.66;;;29.99;43.93
28312;BME280;15572;48.810;9.148;2023-09-07T16:14:26;98222.72;;;29.92;43.89
28312;BME280;15572;48.810;9.148;2023-09-07T16:19:23;98227.84;;;29.46;43.30
28312;BME280;15572;48.810;9.148;2023-09-07T16:24:19;98222.34;;;29.10;44.36
28312;BME280;15572;48.810;9.148;2023-09-07T16:29:17;98227.38;;;28.72;45.43
28312;BME280;15572;48.810;9.148;2023-09-07T16:34:14;98230.34;;;28.39;45.74
28312;BME280;15572;48.810;9.148;2023-09-07T16:39:10;98227.75;;;28.02;46.60
28312;BME280;15572;48.810;9.148;2023-09-07T16:44:07;98226.25;;;27.50;47.87
28312;BME280;15572;48.810;9.148;2023-09-07T16:49:04;98238.66;;;27.20;49.32
28312;BME280;15572;48.810;9.148;2023-09-07T16:54:01;98249.00;;;27.01;48.97
28312;BME280;15572;48.810;9.148;2023-09-07T16:58:58;98240.22;;;26.94;48.61
28312;BME280;15572;48.810;9.148;2023-09-07T17:03:54;98242.53;;;26.87;48.57
28312;BME280;15572;48.810;9.148;2023-09-07T17:08:52;98236.50;;;26.79;48.72
28312;BME280;15572;48.810;9.148;2023-09-07T17:13:49;98243.72;;;26.62;50.16
28312;BME280;15572;48.810;9.148;2023-09-07T17:18:45;98247.53;;;26.47;50.02
28312;BME280;15572;48.810;9.148;2023-09-07T17:23:42;98255.44;;;26.35;49.81
28312;BME280;15572;48.810;9.148;2023-09-07T17:28:39;98255.63;;;26.20;49.76
28312;BME280;15572;48.810;9.148;2023-09-07T17:33:36;98248.03;;;26.07;49.58
28312;BME280;15572;48.810;9.148;2023-09-07T17:38:32;98248.16;;;25.91;49.35
28312;BME280;15572;48.810;9.148;2023-09-07T17:43:29;98251.44;;;25.75;50.02
28312;BME280;15572;48.810;9.148;2023-09-07T17:48:26;98255.47;;;25.59;50.65
28312;BME280;15572;48.810;9.148;2023-09-07T17:53:24;98268.31;;;25.44;50.32
28312;BME280;15572;48.810;9.148;2023-09-07T17:58:21;98269.56;;;25.28;50.47
28312;BME280;15572;48.810;9.148;2023-09-07T18:03:17;98278.56;;;25.10;50.44
28312;BME280;15572;48.810;9.148;2023-09-07T18:08:15;98284.47;;;24.98;50.84
28312;BME280;15572;48.810;9.148;2023-09-07T18:13:11;98296.47;;;24.79;51.66
28312;BME280;15572;48.810;9.148;2023-09-07T18:18:08;98298.53;;;24.53;52.65
28312;BME280;15572;48.810;9.148;2023-09-07T18:23:04;98305.00;;;24.28;54.03
28312;BME280;15572;48.810;9.148;2023-09-07T18:28:03;98317.47;;;24.05;55.23
28312;BME280;15572;48.810;9.148;2023-09-07T18:33:00;98309.81;;;23.82;56.71
28312;BME280;15572;48.810;9.148;2023-09-07T18:37:57;98323.94;;;23.50;58.53
28312;BME280;15572;48.810;9.148;2023-09-07T18:42:54;98320.03;;;23.26;60.93
28312;BME280;15572;48.810;9.148;2023-09-07T18:47:52;98321.09;;;22.99;62.83
28312;BME280;15572;48.810;9.148;2023-09-07T18:52:49;98331.53;;;22.77;64.17
28312;BME280;15572;48.810;9.148;2023-09-07T18:57:45;98327.84;;;22.56;66.09
28312;BME280;15572;48.810;9.148;2023-09-07T19:02:42;98322.50;;;22.30;68.47
28312;BME280;15572;48.810;9.148;2023-09-07T19:07:40;98324.59;;;22.07;70.13
28312;BME280;15572;48.810;9.148;2023-09-07T19:12:37;98324.66;;;21.80;72.33
28312;BME280;15572;48.810;9.148;2023-09-07T19:17:33;98323.44;;;21.61;75.27
28312;BME280;15572;48.810;9.148;2023-09-07T19:22:30;98320.84;;;21.45;76.92
28312;BME280;15572;48.810;9.148;2023-09-07T19:27:28;98320.72;;;21.29;78.08
28312;BME280;15572;48.810;9.148;2023-09-07T19:32:24;98314.88;;;21.21;79.55
28312;BME280;15572;48.810;9.148;2023-09-07T19:37:21;98317.19;;;21.07;80.36
28312;BME280;15572;48.810;9.148;2023-09-07T19:42:17;98323.94;;;20.94;81.29
28312;BME280;15572;48.810;9.148;2023-09-07T19:47:15;98318.06;;;20.86;83.11
28312;BME280;15572;48.810;9.148;2023-09-07T19:52:12;98329.56;;;20.78;84.41
28312;BME280;15572;48.810;9.148;2023-09-07T19:57:08;98332.09;;;20.63;85.60
28312;BME280;15572;48.810;9.148;2023-09-07T20:02:05;98331.16;;;20.52;87.68
28312;BME280;15572;48.810;9.148;2023-09-07T20:07:03;98337.06;;;20.39;89.16
28312;BME280;15572;48.810;9.148;2023-09-07T20:12:00;98330.00;;;20.26;90.31
28312;BME280;15572;48.810;9.148;2023-09-07T20:16:57;98339.47;;;20.13;91.71
28312;BME280;15572;48.810;9.148;2023-09-07T20:21:53;98333.88;;;19.87;93.62
28312;BME280;15572;48.810;9.148;2023-09-07T20:26:51;98335.13;;;19.62;97.50
28312;BME280;15572;48.810;9.148;2023-09-07T20:31:47;98334.53;;;19.44;99.68
28312;BME280;15572;48.810;9.148;2023-09-07T20:36:44;98335.53;;;19.38;100.00
28312;BME280;15572;48.810;9.148;2023-09-07T20:41:40;98333.19;;;19.29;100.00
28312;BME280;15572;48.810;9.148;2023-09-07T20:46:38;98336.19;;;19.11;100.00
28312;BME280;15572;48.810;9.148;2023-09-07T20:51:35;98334.00;;;18.97;100.00
28312;BME280;15572;48.810;9.148;2023-09-07T20:56:31;98334.41;;;18.88;100.00
28312;BME280;15572;48.810;9.148;2023-09-07T21:01:28;98335.47;;;18.87;100.00
28312;BME280;15572;48.810;9.148;2023-09-07T21:06:26;98336.38;;;18.76;100.00
28312;BME280;15572;48.810;9.148;2023-09-07T21:11:22;98344.16;;;18.68;100.00
28312;BME280;15572;48.810;9.148;2023-09-07T21:16:19;98347.03;;;18.49;100.00
28312;BME280;15572;48.810;9.148;2023-09-07T21:21:15;98346.41;;;18.31;100.00
28312;BME280;15572;48.810;9.148;2023-09-07T21:26:13;98354.41;;;18.21;100.00
28312;BME280;15572;48.810;9.148;2023-09-07T21:31:10;98348.34;;;18.07;100.00
28312;BME280;15572;48.810;9.148;2023-09-07T21:36:07;98349.91;;;18.03;100.00
28312;BME280;15572;48.810;9.148;2023-09-07T21:41:03;98344.22;;;17.93;100.00
28312;BME280;15572;48.810;9.148;2023-09-07T21:46:01;98340.75;;;17.86;100.00
28312;BME280;15572;48.810;9.148;2023-09-07T21:50:58;98351.25;;;17.89;100.00
28312;BME280;15572;48.810;9.148;2023-09-07T21:55:54;98350.53;;;17.93;100.00
28312;BME280;15572;48.810;9.148;2023-09-07T22:00:51;98350.28;;;17.83;100.00
28312;BME280;15572;48.810;9.148;2023-09-07T22:05:53;98342.91;;;17.60;100.00
28312;BME280;15572;48.810;9.148;2023-09-07T22:10:50;98337.63;;;17.47;100.00
28312;BME280;15572;48.810;9.148;2023-09-07T22:15:47;98336.53;;;17.37;100.00
28312;BME280;15572;48.810;9.148;2023-09-07T22:20:43;98345.13;;;17.29;100.00
28312;BME280;15572;48.810;9.148;2023-09-07T22:25:41;98330.69;;;17.10;100.00
28312;BME280;15572;48.810;9.148;2023-09-07T22:30:38;98332.84;;;17.08;100.00
28312;BME280;15572;48.810;9.148;2023-09-07T22:35:34;98333.28;;;17.05;100.00
28312;BME280;15572;48.810;9.148;2023-09-07T22:40:32;98324.94;;;17.00;100.00
28312;BME280;15572;48.810;9.148;2023-09-07T22:45:32;98326.97;;;16.93;100.00
28312;BME280;15572;48.810;9.148;2023-09-07T22:50:29;98316.34;;;16.84;100.00
28312;BME280;15572;48.810;9.148;2023-09-07T22:55:39;98322.56;;;16.92;100.00
28312;BME280;15572;48.810;9.148;2023-09-07T23:00:40;98315.06;;;16.87;100.00
28312;BME280;15572;48.810;9.148;2023-09-07T23:05:37;98320.41;;;16.82;100.00
28312;BME280;15572;48.810;9.148;2023-09-07T23:10:33;98324.38;;;16.68;100.00
28312;BME280;15572;48.810;9.148;2023-09-07T23:15:30;98326.75;;;16.64;100.00
28312;BME280;15572;48.810;9.148;2023-09-07T23:20:29;98322.50;;;16.68;100.00
28312;BME280;15572;48.810;9.148;2023-09-07T23:25:25;98327.88;;;16.57;100.00
28312;BME280;15572;48.810;9.148;2023-09-07T23:30:22;98321.53;;;16.45;100.00
28312;BME280;15572;48.810;9.148;2023-09-07T23:35:20;98326.25;;;16.37;100.00
28312;BME280;15572;48.810;9.148;2023-09-07T23:40:18;98325.34;;;16.25;100.00
28312;BME280;15572;48.810;9.148;2023-09-07T23:45:14;98319.47;;;16.10;100.00
28312;BME280;15572;48.810;9.148;2023-09-07T23:50:11;98309.16;;;16.12;100.00
28312;BME280;15572;48.810;9.148;2023-09-07T23:55:08;98318.63;;;16.10;100.00
